createdAt,value
2019-05-25T00:01:05.361Z,65.84
2019-05-25T00:03:33.503Z,65.92
2019-05-25T00:06:01.614Z,65.93
2019-05-25T00:08:29.719Z,66.13
2019-05-25T00:10:57.856Z,66.60
2019-05-25T00:13:26.105Z,66.63
2019-05-25T00:15:54.311Z,66.49
2019-05-25T00:18:22.452Z,66.61
2019-05-25T00:20:50.596Z,66.66
2019-05-25T00:23:18.754Z,66.46
2019-05-25T00:25:46.904Z,66.60
2019-05-25T00:28:15.284Z,66.50
2019-05-25T00:30:43.453Z,66.65
2019-05-25T00:33:11.727Z,66.58
2019-05-25T00:35:39.876Z,66.63
2019-05-25T00:38:08.037Z,66.63
2019-05-25T00:40:36.335Z,66.60
2019-05-25T00:43:04.442Z,66.67
2019-05-25T00:45:32.587Z,66.36
2019-05-25T00:48:00.754Z,66.34
2019-05-25T00:50:28.857Z,66.33
2019-05-25T00:52:57.009Z,66.30
2019-05-25T00:55:25.155Z,66.44
2019-05-25T00:57:53.327Z,66.45
2019-05-25T01:00:22.045Z,66.47
2019-05-25T01:02:50.199Z,66.57
2019-05-25T01:05:18.323Z,66.46
2019-05-25T01:07:46.468Z,66.48
2019-05-25T01:10:15.471Z,66.35
2019-05-25T01:12:43.660Z,66.37
2019-05-25T01:15:12.460Z,66.25
2019-05-25T01:17:40.571Z,66.21
2019-05-25T01:20:09.154Z,66.18
2019-05-25T01:22:37.252Z,66.13
2019-05-25T01:25:05.915Z,65.97
2019-05-25T01:27:34.082Z,65.86
2019-05-25T01:30:02.267Z,65.61
2019-05-25T01:32:30.388Z,65.40
2019-05-25T01:34:58.568Z,65.09
2019-05-25T01:37:26.699Z,64.78
2019-05-25T01:39:54.835Z,64.64
2019-05-25T01:42:22.998Z,64.20
2019-05-25T01:44:51.100Z,64.06
2019-05-25T01:47:19.222Z,63.80
2019-05-25T01:49:47.450Z,63.59
2019-05-25T01:52:15.582Z,63.49
2019-05-25T01:54:58.560Z,63.30
2019-05-25T01:57:13.566Z,63.06
2019-05-25T01:59:41.750Z,63.06
2019-05-25T02:02:09.857Z,62.87
2019-05-25T02:04:37.968Z,62.80
2019-05-25T02:07:06.148Z,62.81
2019-05-25T02:09:34.353Z,62.76
2019-05-25T02:12:03.402Z,62.77
2019-05-25T02:14:31.561Z,62.78
2019-05-25T02:16:59.711Z,62.75
2019-05-25T02:19:27.857Z,62.68
2019-05-25T02:21:56.002Z,62.55
2019-05-25T02:24:24.112Z,62.47
2019-05-25T02:26:52.229Z,62.38
2019-05-25T02:29:20.350Z,62.12
2019-05-25T02:31:48.578Z,62.18
2019-05-25T02:34:16.761Z,62.04
2019-05-25T02:36:44.849Z,61.84
2019-05-25T02:39:17.220Z,61.72
2019-05-25T02:41:45.400Z,61.73
2019-05-25T02:44:13.628Z,61.70
2019-05-25T02:46:41.861Z,61.62
2019-05-25T02:49:09.966Z,61.58
2019-05-25T02:51:38.119Z,61.56
2019-05-25T02:54:06.235Z,61.57
2019-05-25T02:56:34.351Z,61.61
2019-05-25T02:59:03.651Z,61.71
2019-05-25T03:01:31.748Z,61.82
2019-05-25T03:03:59.839Z,61.83
2019-05-25T03:06:29.280Z,61.88
2019-05-25T03:08:57.400Z,61.99
2019-05-25T03:11:27.446Z,61.87
2019-05-25T03:13:55.555Z,61.89
2019-05-25T03:16:23.757Z,61.89
2019-05-25T03:18:51.905Z,61.89
2019-05-25T03:21:20.087Z,61.59
2019-05-25T03:23:48.189Z,61.54
2019-05-25T03:26:16.310Z,61.56
2019-05-25T03:28:44.471Z,61.66
2019-05-25T03:31:12.596Z,61.82
2019-05-25T03:33:40.725Z,61.82
2019-05-25T03:36:08.876Z,61.86
2019-05-25T03:38:37.070Z,61.91
2019-05-25T03:41:05.228Z,61.88
2019-05-25T03:43:33.313Z,61.79
2019-05-25T03:46:03.379Z,61.67
2019-05-25T03:48:31.507Z,61.62
2019-05-25T03:50:59.613Z,61.52
2019-05-25T03:53:27.749Z,61.44
2019-05-25T03:56:05.432Z,61.47
2019-05-25T03:58:25.760Z,61.49
2019-05-25T04:00:53.970Z,61.54
2019-05-25T04:03:22.108Z,61.48
2019-05-25T04:05:50.248Z,61.53
2019-05-25T04:08:18.350Z,61.52
2019-05-25T04:10:46.491Z,61.69
2019-05-25T04:13:14.629Z,61.83
2019-05-25T04:15:42.725Z,61.97
2019-05-25T04:18:10.951Z,62.29
2019-05-25T04:20:39.150Z,62.41
2019-05-25T04:23:07.302Z,62.63
2019-05-25T04:25:35.591Z,63.09
2019-05-25T04:28:03.701Z,63.58
2019-05-25T04:30:31.830Z,64.19
2019-05-25T04:32:59.969Z,64.31
2019-05-25T04:35:28.106Z,65.28
2019-05-25T04:37:56.253Z,65.36
2019-05-25T04:40:24.400Z,66.34
2019-05-25T04:42:52.525Z,66.56
2019-05-25T04:45:20.741Z,67.37
2019-05-25T04:47:48.939Z,67.30
2019-05-25T04:50:17.251Z,67.70
2019-05-25T04:52:45.379Z,67.82
2019-05-25T04:55:13.909Z,68.32
2019-05-25T04:57:42.049Z,69.42
2019-05-25T05:00:10.980Z,69.08
2019-05-25T05:02:39.110Z,69.50
2019-05-25T05:05:07.227Z,69.63
2019-05-25T05:07:35.415Z,69.82
2019-05-25T05:10:07.071Z,70.14
2019-05-25T05:12:35.251Z,70.15
2019-05-25T05:15:04.075Z,70.03
2019-05-25T05:17:32.233Z,70.07
2019-05-25T05:20:00.351Z,70.25
2019-05-25T05:22:28.488Z,70.20
2019-05-25T05:24:56.624Z,69.97
2019-05-25T05:27:26.128Z,70.03
2019-05-25T05:29:54.261Z,69.97
2019-05-25T05:32:27.598Z,69.99
2019-05-25T05:34:52.335Z,69.53
2019-05-25T05:37:22.258Z,69.30
2019-05-25T05:39:51.854Z,69.11
2019-05-25T05:42:23.283Z,69.10
2019-05-25T05:44:53.567Z,68.87
2019-05-25T05:47:23.978Z,68.74
2019-05-25T05:49:53.736Z,68.45
2019-05-25T05:52:24.225Z,68.23
2019-05-25T05:54:53.473Z,68.07
2019-05-25T05:57:21.598Z,67.72
2019-05-25T05:59:49.750Z,67.33
2019-05-25T06:02:17.908Z,66.98
2019-05-25T06:04:46.071Z,66.67
2019-05-25T06:07:14.209Z,66.47
2019-05-25T06:09:42.384Z,66.02
2019-05-25T06:12:10.566Z,65.74
2019-05-25T06:14:38.733Z,65.65
2019-05-25T06:17:06.893Z,65.37
2019-05-25T06:19:35.131Z,65.10
2019-05-25T06:22:03.275Z,64.96
2019-05-25T06:24:32.972Z,65.01
2019-05-25T06:27:01.129Z,65.47
2019-05-25T06:29:29.293Z,66.53
2019-05-25T06:31:57.429Z,67.47
2019-05-25T06:34:25.632Z,67.84
2019-05-25T06:36:53.769Z,68.59
2019-05-25T06:39:22.082Z,69.04
2019-05-25T06:41:50.232Z,69.42
2019-05-25T06:44:18.426Z,69.63
2019-05-25T06:46:46.547Z,69.94
2019-05-25T06:49:14.673Z,70.18
2019-05-25T06:51:42.848Z,70.33
2019-05-25T06:54:11.750Z,70.09
2019-05-25T06:56:39.850Z,69.91
2019-05-25T06:59:07.974Z,69.71
2019-05-25T07:01:36.097Z,69.42
2019-05-25T07:04:04.313Z,69.44
2019-05-25T07:06:32.526Z,69.10
2019-05-25T07:09:00.635Z,68.88
2019-05-25T07:11:28.791Z,68.51
2019-05-25T07:13:56.959Z,68.29
2019-05-25T07:16:25.081Z,67.65
2019-05-25T07:18:53.229Z,67.51
2019-05-25T07:21:21.372Z,67.46
2019-05-25T07:23:49.528Z,67.31
2019-05-25T07:26:17.674Z,67.13
2019-05-25T07:28:45.824Z,67.15
2019-05-25T07:31:13.962Z,67.24
2019-05-25T07:33:42.059Z,67.54
2019-05-25T07:36:10.297Z,67.88
2019-05-25T07:38:38.434Z,67.92
2019-05-25T07:41:06.549Z,68.06
2019-05-25T07:43:34.668Z,68.03
2019-05-25T07:46:02.782Z,67.83
2019-05-25T07:48:30.908Z,67.74
2019-05-25T07:50:59.033Z,67.69
2019-05-25T07:53:27.244Z,67.67
2019-05-25T07:55:55.386Z,67.49
2019-05-25T07:58:23.547Z,67.26
2019-05-25T08:00:51.822Z,67.30
2019-05-25T08:03:19.977Z,67.35
2019-05-25T08:05:48.280Z,67.00
2019-05-25T08:08:16.488Z,66.62
2019-05-25T08:10:44.778Z,66.16
2019-05-25T08:13:12.948Z,65.78
2019-05-25T08:15:41.509Z,65.58
2019-05-25T08:18:09.652Z,65.36
2019-05-25T08:20:37.814Z,65.17
2019-05-25T08:23:06.022Z,64.91
2019-05-25T08:25:34.238Z,64.82
2019-05-25T08:28:02.388Z,64.75
2019-05-25T08:30:30.543Z,64.31
2019-05-25T08:32:58.721Z,64.39
2019-05-25T08:35:26.849Z,64.67
2019-05-25T08:37:54.976Z,64.93
2019-05-25T08:40:23.352Z,65.11
2019-05-25T08:42:51.499Z,64.99
2019-05-25T08:45:19.597Z,64.78
2019-05-25T08:47:47.757Z,64.68
2019-05-25T08:50:15.881Z,64.35
2019-05-25T08:52:44.005Z,63.95
2019-05-25T08:55:12.569Z,63.28
2019-05-25T08:57:40.708Z,62.52
2019-05-25T09:00:09.252Z,61.53
2019-05-25T09:02:37.414Z,61.48
2019-05-25T09:05:05.873Z,61.46
2019-05-25T09:07:34.013Z,61.27
2019-05-25T09:10:02.126Z,61.85
2019-05-25T09:12:30.280Z,62.12
2019-05-25T09:14:58.468Z,62.23
2019-05-25T09:17:26.613Z,62.50
2019-05-25T09:19:54.723Z,62.69
2019-05-25T09:22:22.937Z,62.68
2019-05-25T09:24:53.811Z,62.83
2019-05-25T09:27:21.914Z,63.10
2019-05-25T09:29:50.067Z,63.09
2019-05-25T09:32:18.154Z,63.01
2019-05-25T09:34:46.297Z,62.97
2019-05-25T09:37:14.391Z,62.75
2019-05-25T09:39:42.575Z,62.67
2019-05-25T09:42:10.692Z,62.35
2019-05-25T09:44:38.823Z,62.13
2019-05-25T09:47:06.940Z,61.93
2019-05-25T09:49:35.063Z,61.64
2019-05-25T09:52:03.165Z,61.43
2019-05-25T09:54:31.565Z,60.87
2019-05-25T09:56:59.800Z,60.65
2019-05-25T09:59:27.925Z,60.01
2019-05-25T10:01:56.127Z,59.03
2019-05-25T10:04:24.266Z,58.48
2019-05-25T10:06:52.409Z,58.12
2019-05-25T10:09:20.588Z,57.98
2019-05-25T10:11:48.882Z,57.67
2019-05-25T10:14:17.034Z,57.77
2019-05-25T10:16:45.193Z,57.32
2019-05-25T10:19:13.327Z,57.03
2019-05-25T10:21:41.506Z,56.09
2019-05-25T10:24:09.721Z,56.33
2019-05-25T10:26:38.564Z,56.26
2019-05-25T10:29:06.678Z,56.14
2019-05-25T10:31:35.140Z,56.20
2019-05-25T10:34:03.817Z,55.93
2019-05-25T10:36:31.947Z,55.77
2019-05-25T10:39:00.090Z,55.73
2019-05-25T10:41:28.259Z,55.41
2019-05-25T10:43:56.459Z,55.46
2019-05-25T10:46:24.706Z,54.56
2019-05-25T10:48:52.832Z,54.18
2019-05-25T10:51:20.943Z,53.87
2019-05-25T10:53:49.144Z,53.28
2019-05-25T10:56:17.289Z,51.92
2019-05-25T10:58:45.412Z,52.23
2019-05-25T11:01:13.584Z,51.90
2019-05-25T11:03:41.745Z,51.05
2019-05-25T11:06:09.869Z,50.47
2019-05-25T11:08:37.979Z,50.10
2019-05-25T11:11:06.137Z,49.52
2019-05-25T11:13:34.257Z,49.53
2019-05-25T11:16:02.373Z,47.55
2019-05-25T11:18:30.575Z,46.98
2019-05-25T11:20:58.737Z,45.91
2019-05-25T11:23:26.870Z,45.95
2019-05-25T11:25:55.031Z,45.67
2019-05-25T11:28:23.176Z,45.60
2019-05-25T11:30:51.331Z,44.72
2019-05-25T11:33:19.607Z,44.39
2019-05-25T11:35:47.730Z,43.40
2019-05-25T11:38:15.971Z,42.32
2019-05-25T11:40:44.119Z,41.61
2019-05-25T11:43:12.275Z,41.34
2019-05-25T11:45:40.410Z,41.20
2019-05-25T11:48:08.601Z,40.85
2019-05-25T11:50:36.776Z,40.43
2019-05-25T11:53:05.993Z,39.67
2019-05-25T11:55:34.390Z,39.33
2019-05-25T11:58:05.159Z,37.87
2019-05-25T12:00:34.094Z,37.87
2019-05-25T12:03:03.832Z,37.49
2019-05-25T12:05:32.053Z,37.50
2019-05-25T12:08:00.194Z,37.80
2019-05-25T12:10:28.330Z,38.22
2019-05-25T12:12:56.489Z,38.73
2019-05-25T12:15:24.665Z,38.70
2019-05-25T12:17:52.813Z,39.15
2019-05-25T12:20:21.665Z,38.69
2019-05-25T12:22:49.785Z,38.28
2019-05-25T12:25:18.563Z,37.88
2019-05-25T12:27:49.394Z,37.10
2019-05-25T12:30:18.257Z,36.13
2019-05-25T12:32:46.440Z,34.85
2019-05-25T12:35:16.066Z,34.80
2019-05-25T12:37:44.315Z,33.75
2019-05-25T12:40:12.961Z,33.75
2019-05-25T12:42:41.137Z,33.82
2019-05-25T12:45:09.549Z,33.95
2019-05-25T12:47:37.736Z,34.39
2019-05-25T12:50:07.117Z,34.67
2019-05-25T12:52:35.339Z,35.04
2019-05-25T12:55:03.845Z,35.69
2019-05-25T12:57:32.007Z,36.71
2019-05-25T13:00:14.297Z,37.05
2019-05-25T13:02:30.023Z,37.52
2019-05-25T13:04:58.161Z,38.40
2019-05-25T13:07:26.286Z,38.80
2019-05-25T13:09:54.451Z,39.52
2019-05-25T13:12:22.619Z,39.62
2019-05-25T13:14:50.827Z,40.16
2019-05-25T13:17:19.031Z,40.73
2019-05-25T13:19:47.526Z,41.16
2019-05-25T13:22:15.798Z,41.63
2019-05-25T13:24:43.922Z,41.79
2019-05-25T13:27:12.119Z,42.11
2019-05-25T13:29:40.320Z,42.47
2019-05-25T13:32:08.727Z,42.51
2019-05-25T13:34:36.844Z,42.63
2019-05-25T13:37:05.089Z,42.68
2019-05-25T13:39:33.210Z,42.66
2019-05-25T13:42:02.951Z,42.62
2019-05-25T13:44:31.063Z,42.94
2019-05-25T13:46:59.255Z,43.14
2019-05-25T13:49:27.360Z,43.26
2019-05-25T13:51:55.506Z,43.49
2019-05-25T13:54:23.676Z,43.08
2019-05-25T13:56:51.869Z,42.46
2019-05-25T13:59:20.003Z,42.20
2019-05-25T14:01:48.109Z,42.28
2019-05-25T14:04:16.231Z,42.13
2019-05-25T14:06:44.324Z,42.06
2019-05-25T14:09:15.622Z,42.17
2019-05-25T14:11:42.312Z,42.18
2019-05-25T14:14:10.414Z,42.07
2019-05-25T14:16:38.546Z,42.21
2019-05-25T14:19:06.671Z,41.61
2019-05-25T14:21:34.797Z,42.34
2019-05-25T14:24:02.941Z,42.29
2019-05-25T14:26:31.044Z,41.87
2019-05-25T14:28:59.235Z,42.17
2019-05-25T14:31:44.104Z,42.46
2019-05-25T14:33:57.231Z,42.14
2019-05-25T14:36:25.382Z,41.79
2019-05-25T14:38:53.557Z,41.83
2019-05-25T14:41:21.694Z,41.75
2019-05-25T14:43:49.910Z,41.86
2019-05-25T14:46:27.342Z,41.81
2019-05-25T14:48:47.859Z,41.64
2019-05-25T14:51:16.011Z,41.40
2019-05-25T14:53:44.165Z,41.63
2019-05-25T14:56:12.309Z,41.70
2019-05-25T14:58:40.504Z,41.84
2019-05-25T15:01:09.256Z,41.94
2019-05-25T15:03:37.424Z,41.78
2019-05-25T15:06:05.500Z,41.69
2019-05-25T15:08:35.773Z,41.80
2019-05-25T15:11:03.896Z,42.36
2019-05-25T15:13:32.048Z,42.37
2019-05-25T15:16:00.257Z,42.62
2019-05-25T15:18:28.440Z,42.52
2019-05-25T15:20:56.930Z,42.52
2019-05-25T15:23:25.121Z,42.44
2019-05-25T15:25:53.295Z,42.31
2019-05-25T15:28:21.429Z,42.13
2019-05-25T15:30:49.538Z,41.72
2019-05-25T15:33:17.720Z,41.16
2019-05-25T15:35:45.870Z,39.91
2019-05-25T15:38:14.030Z,40.31
2019-05-25T15:40:42.185Z,40.04
2019-05-25T15:43:10.446Z,39.11
2019-05-25T15:45:38.595Z,39.12
2019-05-25T15:48:06.749Z,38.83
2019-05-25T15:50:34.969Z,38.61
2019-05-25T15:53:04.319Z,38.33
2019-05-25T15:55:32.495Z,38.08
2019-05-25T15:58:00.629Z,37.50
2019-05-25T16:00:53.900Z,37.24
2019-05-25T16:03:22.112Z,36.44
2019-05-25T16:05:50.203Z,35.95
2019-05-25T16:08:19.420Z,35.84
2019-05-25T16:10:47.628Z,35.76
2019-05-25T16:13:15.880Z,35.30
2019-05-25T16:15:44.023Z,35.27
2019-05-25T16:18:12.287Z,35.16
2019-05-25T16:20:40.422Z,35.30
2019-05-25T16:23:09.423Z,35.41
2019-05-25T16:25:37.565Z,35.54
2019-05-25T16:28:05.695Z,35.70
2019-05-25T16:30:33.852Z,36.15
2019-05-25T16:33:17.327Z,36.12
2019-05-25T16:35:31.993Z,36.16
2019-05-25T16:38:00.448Z,36.57
2019-05-25T16:40:28.955Z,36.58
2019-05-25T16:42:57.078Z,36.58
2019-05-25T16:45:25.219Z,36.47
2019-05-25T16:47:53.411Z,36.58
2019-05-25T16:50:21.611Z,36.82
2019-05-25T16:52:49.901Z,37.17
2019-05-25T16:55:18.008Z,37.33
2019-05-25T16:57:46.201Z,37.62
2019-05-25T17:00:17.372Z,37.79
2019-05-25T17:02:45.505Z,38.06
2019-05-25T17:05:13.866Z,38.65
2019-05-25T17:07:41.999Z,39.02
2019-05-25T17:10:10.287Z,39.29
2019-05-25T17:12:38.445Z,39.60
2019-05-25T17:15:06.815Z,40.07
2019-05-25T17:17:34.969Z,40.54
2019-05-25T17:20:03.558Z,40.86
2019-05-25T17:22:31.724Z,41.14
2019-05-25T17:24:59.927Z,41.67
2019-05-25T17:27:28.079Z,42.32
2019-05-25T17:29:56.272Z,42.48
2019-05-25T17:32:24.397Z,43.01
2019-05-25T17:34:52.613Z,43.28
2019-05-25T17:37:20.773Z,43.76
2019-05-25T17:39:48.878Z,44.13
2019-05-25T17:42:17.057Z,44.36
2019-05-25T17:44:45.219Z,44.82
2019-05-25T17:47:13.350Z,44.96
2019-05-25T17:49:41.528Z,45.20
2019-05-25T17:52:09.685Z,45.66
2019-05-25T17:54:37.968Z,45.90
2019-05-25T17:57:06.150Z,45.99
2019-05-25T17:59:34.410Z,46.01
2019-05-25T18:02:02.603Z,46.03
2019-05-25T18:04:30.761Z,45.98
2019-05-25T18:06:58.962Z,46.10
2019-05-25T18:09:27.113Z,46.28
2019-05-25T18:11:55.260Z,46.78
2019-05-25T18:14:23.431Z,47.27
2019-05-25T18:16:51.611Z,47.76
2019-05-25T18:19:19.755Z,48.10
2019-05-25T18:21:47.877Z,48.70
2019-05-25T18:24:16.160Z,48.77
2019-05-25T18:26:44.446Z,48.95
2019-05-25T18:29:12.605Z,49.13
2019-05-25T18:31:40.772Z,49.32
2019-05-25T18:34:21.689Z,49.46
2019-05-25T18:36:38.748Z,49.67
2019-05-25T18:39:07.238Z,49.83
2019-05-25T18:41:35.409Z,50.10
2019-05-25T18:44:03.556Z,50.39
2019-05-25T18:46:31.752Z,50.65
2019-05-25T18:48:59.886Z,50.85
2019-05-25T18:51:28.123Z,51.08
2019-05-25T18:53:56.292Z,51.35
2019-05-25T18:56:24.463Z,51.52
2019-05-25T18:58:52.568Z,51.74
2019-05-25T19:01:20.699Z,51.93
2019-05-25T19:03:48.886Z,52.23
2019-05-25T19:06:17.039Z,52.54
2019-05-25T19:08:45.279Z,52.71
2019-05-25T19:11:13.510Z,52.96
2019-05-25T19:13:41.716Z,53.13
2019-05-25T19:16:10.141Z,53.20
2019-05-25T19:18:38.350Z,53.40
2019-05-25T19:21:06.519Z,53.53
2019-05-25T19:23:34.689Z,53.68
2019-05-25T19:26:03.151Z,53.84
2019-05-25T19:28:31.301Z,54.07
2019-05-25T19:30:59.487Z,54.20
2019-05-25T19:33:28.361Z,54.39
2019-05-25T19:35:56.559Z,54.55
2019-05-25T19:38:24.700Z,54.70
2019-05-25T19:40:52.837Z,54.80
2019-05-25T19:43:20.988Z,55.00
2019-05-25T19:45:49.307Z,55.20
2019-05-25T19:48:17.431Z,55.40
2019-05-25T19:50:45.924Z,55.59
2019-05-25T19:53:14.074Z,55.86
2019-05-25T19:55:42.238Z,56.24
2019-05-25T19:58:10.362Z,56.56
2019-05-25T20:00:38.667Z,56.75
2019-05-25T20:03:06.777Z,56.84
2019-05-25T20:05:34.911Z,56.98
2019-05-25T20:08:03.673Z,57.23
2019-05-25T20:10:31.797Z,57.40
2019-05-25T20:12:59.930Z,57.70
2019-05-25T20:15:28.033Z,57.81
2019-05-25T20:17:56.223Z,58.07
2019-05-25T20:20:24.391Z,58.15
2019-05-25T20:22:52.510Z,58.55
2019-05-25T20:25:20.663Z,58.60
2019-05-25T20:27:48.792Z,58.55
2019-05-25T20:30:17.061Z,58.73
2019-05-25T20:32:45.196Z,58.87
2019-05-25T20:35:13.575Z,58.94
2019-05-25T20:37:41.730Z,59.09
2019-05-25T20:40:10.320Z,59.36
2019-05-25T20:42:38.695Z,59.46
2019-05-25T20:45:07.601Z,59.42
2019-05-25T20:47:35.729Z,59.58
2019-05-25T20:50:05.691Z,59.67
2019-05-25T20:52:33.828Z,59.81
2019-05-25T20:55:01.941Z,59.87
2019-05-25T20:57:30.113Z,59.92
2019-05-25T20:59:58.338Z,59.98
2019-05-25T21:02:26.506Z,60.22
2019-05-25T21:04:54.682Z,60.73
2019-05-25T21:07:22.790Z,61.00
2019-05-25T21:09:50.917Z,61.18
2019-05-25T21:12:19.137Z,61.28
2019-05-25T21:14:47.252Z,61.31
2019-05-25T21:17:15.911Z,61.61
2019-05-25T21:19:44.038Z,61.86
2019-05-25T21:22:12.193Z,62.04
2019-05-25T21:24:40.346Z,62.08
2019-05-25T21:27:08.475Z,62.14
2019-05-25T21:29:36.664Z,62.18
2019-05-25T21:32:04.968Z,62.20
2019-05-25T21:34:33.105Z,62.28
2019-05-25T21:37:04.408Z,62.24
2019-05-25T21:39:34.788Z,62.39
2019-05-25T21:42:02.927Z,62.63
2019-05-25T21:44:31.051Z,62.68
2019-05-25T21:46:59.277Z,62.72
2019-05-25T21:49:27.405Z,62.81
2019-05-25T21:51:55.545Z,62.86
2019-05-25T21:54:23.731Z,63.01
2019-05-25T21:56:51.901Z,63.01
2019-05-25T21:59:20.035Z,63.00
2019-05-25T22:01:48.295Z,63.20
2019-05-25T22:04:16.462Z,63.36
2019-05-25T22:06:44.709Z,63.46
2019-05-25T22:09:12.826Z,63.73
2019-05-25T22:11:40.939Z,63.83
2019-05-25T22:14:09.094Z,63.91
2019-05-25T22:16:37.229Z,64.07
2019-05-25T22:19:05.365Z,64.07
2019-05-25T22:21:33.738Z,64.18
2019-05-25T22:24:01.847Z,64.24
2019-05-25T22:26:30.010Z,64.47
2019-05-25T22:28:58.243Z,64.55
2019-05-25T22:31:26.368Z,64.76
2019-05-25T22:33:54.512Z,64.95
2019-05-25T22:36:22.635Z,65.10
2019-05-25T22:38:50.773Z,65.35
2019-05-25T22:41:19.963Z,65.50
2019-05-25T22:43:48.322Z,65.51
2019-05-25T22:46:16.433Z,65.60
2019-05-25T22:48:44.575Z,65.81
2019-05-25T22:51:12.705Z,65.99
2019-05-25T22:53:40.866Z,66.11
2019-05-25T22:56:08.995Z,66.29
2019-05-25T22:58:37.162Z,66.48
2019-05-25T23:01:05.356Z,66.78
2019-05-25T23:03:33.579Z,66.80
2019-05-25T23:06:01.705Z,66.96
2019-05-25T23:08:29.864Z,67.12
2019-05-25T23:10:57.977Z,67.25
2019-05-25T23:13:26.087Z,67.24
2019-05-25T23:15:54.273Z,67.34
2019-05-25T23:18:22.440Z,67.37
2019-05-25T23:20:50.600Z,67.42
2019-05-25T23:23:18.724Z,67.43
2019-05-25T23:25:46.888Z,67.50
2019-05-25T23:28:15.025Z,67.61
2019-05-25T23:30:43.145Z,67.63
2019-05-25T23:33:11.430Z,67.87
2019-05-25T23:35:39.599Z,67.94
2019-05-25T23:38:07.743Z,68.05
2019-05-25T23:40:35.907Z,68.13
2019-05-25T23:43:04.046Z,68.28
2019-05-25T23:45:32.160Z,68.39
2019-05-25T23:48:00.331Z,68.44
2019-05-25T23:50:28.431Z,68.69
2019-05-25T23:52:56.581Z,68.75
2019-05-25T23:55:24.730Z,69.02
2019-05-25T23:57:53.684Z,69.12
